sensor_id;sensor_type;location;lat;lon;timestamp;pressure;altitude;pressure_sealevel;temperature;humidity
66703;BME280;60933;46.398;-63.798;2023-07-31T00:00:43;100634.00;;;23.49;56.08
66703;BME280;60933;46.398;-63.798;2023-07-31T00:03:10;100633.78;;;23.41;55.47
66703;BME280;60933;46.398;-63.798;2023-07-31T00:05:36;100635.59;;;23.29;56.20
66703;BME280;60933;46.398;-63.798;2023-07-31T00:08:02;100641.72;;;23.18;56.99
66703;BME280;60933;46.398;-63.798;2023-07-31T00:10:28;100643.38;;;23.08;57.83
66703;BME280;60933;46.398;-63.798;2023-07-31T00:12:54;100649.63;;;22.96;58.50
66703;BME280;60933;46.398;-63.798;2023-07-31T00:15:20;100661.72;;;22.87;59.05
66703;BME280;60933;46.398;-63.798;2023-07-31T00:17:46;100666.63;;;22.80;60.66
66703;BME280;60933;46.398;-63.798;2023-07-31T00:20:13;100662.31;;;22.68;60.99
66703;BME280;60933;46.398;-63.798;2023-07-31T00:22:39;100661.94;;;22.61;61.25
66703;BME280;60933;46.398;-63.798;2023-07-31T00:25:05;100661.56;;;22.54;60.93
66703;BME280;60933;46.398;-63.798;2023-07-31T00:27:32;100668.97;;;22.49;61.61
66703;BME280;60933;46.398;-63.798;2023-07-31T00:29:58;100664.88;;;22.34;62.78
66703;BME280;60933;46.398;-63.798;2023-07-31T00:32:24;100677.75;;;22.25;62.72
66703;BME280;60933;46.398;-63.798;2023-07-31T00:34:50;100681.06;;;22.16;62.71
66703;BME280;60933;46.398;-63.798;2023-07-31T00:37:16;100673.88;;;22.07;62.93
66703;BME280;60933;46.398;-63.798;2023-07-31T00:39:43;100681.50;;;21.98;62.91
66703;BME280;60933;46.398;-63.798;2023-07-31T00:42:09;100686.16;;;21.95;62.63
66703;BME280;60933;46.398;-63.798;2023-07-31T00:44:35;100680.50;;;21.88;63.23
66703;BME280;60933;46.398;-63.798;2023-07-31T00:47:01;100689.91;;;21.79;63.08
66703;BME280;60933;46.398;-63.798;2023-07-31T00:49:27;100689.63;;;21.71;62.91
66703;BME280;60933;46.398;-63.798;2023-07-31T00:51:53;100689.34;;;21.63;64.33
66703;BME280;60933;46.398;-63.798;2023-07-31T00:54:20;100697.63;;;21.57;63.87
66703;BME280;60933;46.398;-63.798;2023-07-31T00:56:46;100697.09;;;21.51;65.00
66703;BME280;60933;46.398;-63.798;2023-07-31T00:59:14;100701.13;;;21.44;65.74
66703;BME280;60933;46.398;-63.798;2023-07-31T01:01:40;100708.25;;;21.42;64.33
66703;BME280;60933;46.398;-63.798;2023-07-31T01:04:07;100712.41;;;21.33;65.78
66703;BME280;60933;46.398;-63.798;2023-07-31T01:10:15;100713.91;;;21.25;63.14
66703;BME280;60933;46.398;-63.798;2023-07-31T01:12:33;100718.97;;;21.15;62.13
66703;BME280;60933;46.398;-63.798;2023-07-31T01:15:08;100723.78;;;21.08;62.03
66703;BME280;60933;46.398;-63.798;2023-07-31T01:17:40;100712.25;;;20.98;61.84
66703;BME280;60933;46.398;-63.798;2023-07-31T01:20:13;100727.97;;;20.98;63.64
66703;BME280;60933;46.398;-63.798;2023-07-31T01:31:18;100733.13;;;20.74;66.97
66703;BME280;60933;46.398;-63.798;2023-07-31T01:33:46;100739.47;;;20.69;66.95
66703;BME280;60933;46.398;-63.798;2023-07-31T01:36:13;100741.59;;;20.64;65.54
66703;BME280;60933;46.398;-63.798;2023-07-31T01:38:39;100736.66;;;20.60;65.60
66703;BME280;60933;46.398;-63.798;2023-07-31T01:41:06;100739.56;;;20.55;66.54
66703;BME280;60933;46.398;-63.798;2023-07-31T01:43:32;100737.19;;;20.52;65.67
66703;BME280;60933;46.398;-63.798;2023-07-31T01:45:58;100735.69;;;20.48;64.95
66703;BME280;60933;46.398;-63.798;2023-07-31T01:48:24;100733.59;;;20.40;64.96
66703;BME280;60933;46.398;-63.798;2023-07-31T01:50:50;100726.34;;;20.31;64.92
66703;BME280;60933;46.398;-63.798;2023-07-31T01:53:16;100737.75;;;20.30;63.72
66703;BME280;60933;46.398;-63.798;2023-07-31T01:55:42;100744.03;;;20.27;64.11
66703;BME280;60933;46.398;-63.798;2023-07-31T01:58:09;100752.09;;;20.24;64.19
66703;BME280;60933;46.398;-63.798;2023-07-31T02:00:35;100748.00;;;20.20;64.43
66703;BME280;60933;46.398;-63.798;2023-07-31T02:03:01;100756.06;;;20.17;64.04
66703;BME280;60933;46.398;-63.798;2023-07-31T02:05:27;100746.72;;;20.13;63.90
66703;BME280;60933;46.398;-63.798;2023-07-31T02:07:53;100740.84;;;20.09;64.73
66703;BME280;60933;46.398;-63.798;2023-07-31T02:10:19;100749.00;;;20.04;65.26
66703;BME280;60933;46.398;-63.798;2023-07-31T02:12:45;100754.44;;;20.01;65.33
66703;BME280;60933;46.398;-63.798;2023-07-31T02:15:11;100751.28;;;19.96;65.99
66703;BME280;60933;46.398;-63.798;2023-07-31T02:17:38;100749.81;;;19.92;66.91
66703;BME280;60933;46.398;-63.798;2023-07-31T02:20:04;100750.81;;;19.89;65.93
66703;BME280;60933;46.398;-63.798;2023-07-31T02:22:30;100760.56;;;19.87;64.98
66703;BME280;60933;46.398;-63.798;2023-07-31T02:24:57;100766.75;;;19.86;66.16
66703;BME280;60933;46.398;-63.798;2023-07-31T02:27:29;100773.00;;;19.84;66.69
66703;BME280;60933;46.398;-63.798;2023-07-31T02:29:55;100769.63;;;19.82;66.37
66703;BME280;60933;46.398;-63.798;2023-07-31T02:32:22;100767.75;;;19.84;67.71
66703;BME280;60933;46.398;-63.798;2023-07-31T02:34:48;100767.00;;;19.82;67.59
66703;BME280;60933;46.398;-63.798;2023-07-31T02:37:14;100766.06;;;19.83;67.62
66703;BME280;60933;46.398;-63.798;2023-07-31T02:39:40;100774.69;;;19.85;68.04
66703;BME280;60933;46.398;-63.798;2023-07-31T02:42:06;100766.06;;;19.83;68.80
66703;BME280;60933;46.398;-63.798;2023-07-31T02:44:32;100763.38;;;19.84;67.60
66703;BME280;60933;46.398;-63.798;2023-07-31T02:46:58;100760.91;;;19.81;67.35
66703;BME280;60933;46.398;-63.798;2023-07-31T02:49:24;100770.47;;;19.82;67.15
66703;BME280;60933;46.398;-63.798;2023-07-31T02:51:50;100765.31;;;19.81;67.29
66703;BME280;60933;46.398;-63.798;2023-07-31T02:54:16;100774.88;;;19.82;68.65
66703;BME280;60933;46.398;-63.798;2023-07-31T02:56:43;100768.78;;;19.81;69.09
66703;BME280;60933;46.398;-63.798;2023-07-31T02:59:09;100771.38;;;19.81;68.27
66703;BME280;60933;46.398;-63.798;2023-07-31T03:01:35;100762.88;;;19.77;68.42
66703;BME280;60933;46.398;-63.798;2023-07-31T03:04:01;100763.84;;;19.76;68.32
66703;BME280;60933;46.398;-63.798;2023-07-31T03:06:27;100771.78;;;19.75;67.32
66703;BME280;60933;46.398;-63.798;2023-07-31T03:08:53;100779.56;;;19.76;63.03
66703;BME280;60933;46.398;-63.798;2023-07-31T03:11:19;100777.59;;;19.80;65.18
66703;BME280;60933;46.398;-63.798;2023-07-31T03:13:45;100779.47;;;19.78;67.43
66703;BME280;60933;46.398;-63.798;2023-07-31T03:16:11;100787.84;;;19.83;70.98
66703;BME280;60933;46.398;-63.798;2023-07-31T03:18:37;100797.50;;;19.83;69.06
66703;BME280;60933;46.398;-63.798;2023-07-31T03:21:04;100789.56;;;19.84;71.15
66703;BME280;60933;46.398;-63.798;2023-07-31T03:23:30;100791.41;;;19.82;72.89
66703;BME280;60933;46.398;-63.798;2023-07-31T03:25:57;100792.34;;;19.81;70.19
66703;BME280;60933;46.398;-63.798;2023-07-31T03:28:24;100792.34;;;19.81;68.50
66703;BME280;60933;46.398;-63.798;2023-07-31T03:30:51;100799.25;;;19.82;72.76
66703;BME280;60933;46.398;-63.798;2023-07-31T03:33:17;100787.03;;;19.83;73.06
66703;BME280;60933;46.398;-63.798;2023-07-31T03:35:43;100794.81;;;19.84;73.25
66703;BME280;60933;46.398;-63.798;2023-07-31T03:38:09;100790.59;;;19.82;73.34
66703;BME280;60933;46.398;-63.798;2023-07-31T03:40:35;100790.75;;;19.78;72.72
66703;BME280;60933;46.398;-63.798;2023-07-31T03:43:02;100789.28;;;19.74;73.36
66703;BME280;60933;46.398;-63.798;2023-07-31T03:45:28;100794.53;;;19.74;72.85
66703;BME280;60933;46.398;-63.798;2023-07-31T03:47:54;100793.88;;;19.71;71.89
66703;BME280;60933;46.398;-63.798;2023-07-31T03:50:20;100798.38;;;19.69;72.23
66703;BME280;60933;46.398;-63.798;2023-07-31T03:52:47;100795.75;;;19.69;72.21
66703;BME280;60933;46.398;-63.798;2023-07-31T03:55:13;100801.09;;;19.67;70.34
66703;BME280;60933;46.398;-63.798;2023-07-31T03:57:39;100806.31;;;19.67;71.85
66703;BME280;60933;46.398;-63.798;2023-07-31T04:00:05;100800.16;;;19.68;72.92
66703;BME280;60933;46.398;-63.798;2023-07-31T04:02:32;100796.88;;;19.65;73.95
66703;BME280;60933;46.398;-63.798;2023-07-31T04:04:58;100809.13;;;19.64;74.15
66703;BME280;60933;46.398;-63.798;2023-07-31T04:07:24;100809.13;;;19.64;73.25
66703;BME280;60933;46.398;-63.798;2023-07-31T04:09:50;100804.75;;;19.65;73.38
66703;BME280;60933;46.398;-63.798;2023-07-31T04:12:16;100805.75;;;19.62;73.70
66703;BME280;60933;46.398;-63.798;2023-07-31T04:14:43;100815.22;;;19.65;72.95
66703;BME280;60933;46.398;-63.798;2023-07-31T04:17:09;100819.59;;;19.64;73.12
66703;BME280;60933;46.398;-63.798;2023-07-31T04:19:35;100816.88;;;19.66;76.30
66703;BME280;60933;46.398;-63.798;2023-07-31T04:22:01;100818.75;;;19.64;74.91
66703;BME280;60933;46.398;-63.798;2023-07-31T04:24:27;100811.09;;;19.60;75.93
66703;BME280;60933;46.398;-63.798;2023-07-31T04:26:53;100807.44;;;19.63;76.00
66703;BME280;60933;46.398;-63.798;2023-07-31T04:29:19;100804.91;;;19.61;76.02
66703;BME280;60933;46.398;-63.798;2023-07-31T04:31:47;100804.09;;;19.61;75.50
66703;BME280;60933;46.398;-63.798;2023-07-31T04:34:13;100799.84;;;19.58;75.69
66703;BME280;60933;46.398;-63.798;2023-07-31T04:36:39;100800.91;;;19.56;74.95
66703;BME280;60933;46.398;-63.798;2023-07-31T04:39:05;100798.56;;;19.51;74.60
66703;BME280;60933;46.398;-63.798;2023-07-31T04:41:32;100802.88;;;19.52;73.50
66703;BME280;60933;46.398;-63.798;2023-07-31T04:43:58;100792.59;;;19.49;73.32
66703;BME280;60933;46.398;-63.798;2023-07-31T04:46:24;100797.91;;;19.48;72.93
66703;BME280;60933;46.398;-63.798;2023-07-31T04:48:50;100795.56;;;19.43;73.03
66703;BME280;60933;46.398;-63.798;2023-07-31T04:51:16;100797.53;;;19.39;72.62
66703;BME280;60933;46.398;-63.798;2023-07-31T04:53:42;100803.81;;;19.37;72.09
66703;BME280;60933;46.398;-63.798;2023-07-31T04:56:08;100797.16;;;19.31;73.32
66703;BME280;60933;46.398;-63.798;2023-07-31T04:58:34;100802.41;;;19.31;73.43
66703;BME280;60933;46.398;-63.798;2023-07-31T05:01:00;100803.44;;;19.28;72.27
66703;BME280;60933;46.398;-63.798;2023-07-31T05:03:26;100787.06;;;19.25;72.72
66703;BME280;60933;46.398;-63.798;2023-07-31T05:05:52;100782.97;;;19.21;72.55
66703;BME280;60933;46.398;-63.798;2023-07-31T05:08:19;100786.78;;;19.15;72.01
66703;BME280;60933;46.398;-63.798;2023-07-31T05:10:45;100782.97;;;19.06;70.93
66703;BME280;60933;46.398;-63.798;2023-07-31T05:13:11;100791.19;;;19.00;70.66
66703;BME280;60933;46.398;-63.798;2023-07-31T05:15:38;100785.56;;;18.92;71.54
66703;BME280;60933;46.398;-63.798;2023-07-31T05:18:04;100788.41;;;18.87;71.00
66703;BME280;60933;46.398;-63.798;2023-07-31T05:20:30;100784.47;;;18.80;71.24
66703;BME280;60933;46.398;-63.798;2023-07-31T05:22:56;100792.66;;;18.74;71.36
66703;BME280;60933;46.398;-63.798;2023-07-31T05:25:22;100786.97;;;18.67;71.29
66703;BME280;60933;46.398;-63.798;2023-07-31T05:27:48;100784.72;;;18.61;71.46
66703;BME280;60933;46.398;-63.798;2023-07-31T05:30:14;100781.78;;;18.51;72.01
66703;BME280;60933;46.398;-63.798;2023-07-31T05:32:41;100778.69;;;18.44;72.59
66703;BME280;60933;46.398;-63.798;2023-07-31T05:35:07;100785.09;;;18.39;72.59
66703;BME280;60933;46.398;-63.798;2023-07-31T05:37:33;100787.22;;;18.32;70.94
66703;BME280;60933;46.398;-63.798;2023-07-31T05:39:59;100792.44;;;18.32;70.44
66703;BME280;60933;46.398;-63.798;2023-07-31T05:42:25;100783.09;;;18.28;68.52
66703;BME280;60933;46.398;-63.798;2023-07-31T05:44:51;100798.53;;;18.32;71.01
66703;BME280;60933;46.398;-63.798;2023-07-31T05:47:17;100794.97;;;18.33;70.96
66703;BME280;60933;46.398;-63.798;2023-07-31T05:49:44;100789.81;;;18.32;67.92
66703;BME280;60933;46.398;-63.798;2023-07-31T05:52:10;100795.03;;;18.32;68.55
66703;BME280;60933;46.398;-63.798;2023-07-31T05:54:36;100801.97;;;18.33;70.64
66703;BME280;60933;46.398;-63.798;2023-07-31T05:57:02;100801.22;;;18.31;71.74
66703;BME280;60933;46.398;-63.798;2023-07-31T05:59:28;100790.16;;;18.26;68.63
66703;BME280;60933;46.398;-63.798;2023-07-31T06:01:55;100793.56;;;18.28;68.34
66703;BME280;60933;46.398;-63.798;2023-07-31T06:04:21;100791.75;;;18.28;73.49
66703;BME280;60933;46.398;-63.798;2023-07-31T06:06:47;100790.94;;;18.28;71.20
66703;BME280;60933;46.398;-63.798;2023-07-31T06:09:13;100797.19;;;18.25;68.78
66703;BME280;60933;46.398;-63.798;2023-07-31T06:11:39;100791.28;;;18.22;69.06
66703;BME280;60933;46.398;-63.798;2023-07-31T06:14:05;100787.00;;;18.21;68.74
66703;BME280;60933;46.398;-63.798;2023-07-31T06:16:31;100784.47;;;18.19;71.81
66703;BME280;60933;46.398;-63.798;2023-07-31T06:18:58;100780.91;;;18.20;74.01
66703;BME280;60933;46.398;-63.798;2023-07-31T06:21:24;100777.56;;;18.18;78.36
66703;BME280;60933;46.398;-63.798;2023-07-31T06:23:50;100782.47;;;18.08;78.45
66703;BME280;60933;46.398;-63.798;2023-07-31T06:26:16;100776.97;;;17.97;78.26
66703;BME280;60933;46.398;-63.798;2023-07-31T06:28:42;100784.34;;;17.88;76.97
66703;BME280;60933;46.398;-63.798;2023-07-31T06:31:08;100784.84;;;17.79;76.56
66703;BME280;60933;46.398;-63.798;2023-07-31T06:33:34;100780.31;;;17.67;76.66
66703;BME280;60933;46.398;-63.798;2023-07-31T06:36:00;100786.59;;;17.63;76.26
66703;BME280;60933;46.398;-63.798;2023-07-31T06:38:27;100794.97;;;17.53;76.17
66703;BME280;60933;46.398;-63.798;2023-07-31T06:40:53;100792.75;;;17.46;76.34
66703;BME280;60933;46.398;-63.798;2023-07-31T06:43:19;100787.16;;;17.36;76.24
66703;BME280;60933;46.398;-63.798;2023-07-31T06:45:45;100790.00;;;17.31;77.71
66703;BME280;60933;46.398;-63.798;2023-07-31T06:48:12;100792.19;;;17.23;77.91
66703;BME280;60933;46.398;-63.798;2023-07-31T06:50:39;100790.13;;;17.12;77.96
66703;BME280;60933;46.398;-63.798;2023-07-31T06:53:05;100784.31;;;17.07;78.07
66703;BME280;60933;46.398;-63.798;2023-07-31T06:55:31;100788.91;;;17.02;78.15
66703;BME280;60933;46.398;-63.798;2023-07-31T06:57:57;100787.69;;;16.91;77.54
66703;BME280;60933;46.398;-63.798;2023-07-31T07:00:23;100795.72;;;16.87;77.07
66703;BME280;60933;46.398;-63.798;2023-07-31T07:02:50;100802.09;;;16.81;77.14
66703;BME280;60933;46.398;-63.798;2023-07-31T07:05:16;100807.63;;;16.75;77.52
66703;BME280;60933;46.398;-63.798;2023-07-31T07:07:43;100808.75;;;16.69;77.62
66703;BME280;60933;46.398;-63.798;2023-07-31T07:10:10;100809.06;;;16.63;78.59
66703;BME280;60933;46.398;-63.798;2023-07-31T07:12:36;100817.03;;;16.60;79.10
66703;BME280;60933;46.398;-63.798;2023-07-31T07:15:03;100813.88;;;16.53;79.45
66703;BME280;60933;46.398;-63.798;2023-07-31T07:17:30;100817.53;;;16.49;79.36
66703;BME280;60933;46.398;-63.798;2023-07-31T07:19:59;100825.56;;;16.44;79.22
66703;BME280;60933;46.398;-63.798;2023-07-31T07:22:26;100818.16;;;16.37;79.09
66703;BME280;60933;46.398;-63.798;2023-07-31T07:24:53;100830.56;;;16.32;79.15
66703;BME280;60933;46.398;-63.798;2023-07-31T07:27:19;100834.22;;;16.27;78.63
66703;BME280;60933;46.398;-63.798;2023-07-31T07:29:46;100829.44;;;16.18;78.47
66703;BME280;60933;46.398;-63.798;2023-07-31T07:32:12;100828.59;;;16.18;77.97
66703;BME280;60933;46.398;-63.798;2023-07-31T07:34:39;100826.81;;;16.18;80.09
66703;BME280;60933;46.398;-63.798;2023-07-31T07:37:05;100824.38;;;16.15;81.48
66703;BME280;60933;46.398;-63.798;2023-07-31T07:39:31;100812.56;;;16.08;80.51
66703;BME280;60933;46.398;-63.798;2023-07-31T07:41:57;100823.03;;;16.06;80.17
66703;BME280;60933;46.398;-63.798;2023-07-31T07:44:23;100813.78;;;16.01;79.51
66703;BME280;60933;46.398;-63.798;2023-07-31T07:46:49;100806.09;;;15.97;80.15
66703;BME280;60933;46.398;-63.798;2023-07-31T07:49:15;100809.59;;;15.96;80.46
66703;BME280;60933;46.398;-63.798;2023-07-31T07:51:42;100799.56;;;15.89;79.51
66703;BME280;60933;46.398;-63.798;2023-07-31T07:54:08;100813.50;;;15.88;79.20
66703;BME280;60933;46.398;-63.798;2023-07-31T07:56:34;100801.31;;;15.88;82.34
66703;BME280;60933;46.398;-63.798;2023-07-31T07:59:01;100806.59;;;15.87;84.12
66703;BME280;60933;46.398;-63.798;2023-07-31T08:01:28;100796.34;;;15.82;84.26
66703;BME280;60933;46.398;-63.798;2023-07-31T08:03:54;100802.69;;;15.76;83.06
66703;BME280;60933;46.398;-63.798;2023-07-31T08:06:20;100799.53;;;15.70;82.48
66703;BME280;60933;46.398;-63.798;2023-07-31T08:08:46;100805.75;;;15.65;82.07
66703;BME280;60933;46.398;-63.798;2023-07-31T08:11:12;100804.28;;;15.60;81.18
66703;BME280;60933;46.398;-63.798;2023-07-31T08:13:38;100808.84;;;15.55;80.79
66703;BME280;60933;46.398;-63.798;2023-07-31T08:16:04;100810.81;;;15.49;81.30
66703;BME280;60933;46.398;-63.798;2023-07-31T08:18:33;100799.72;;;15.46;82.89
66703;BME280;60933;46.398;-63.798;2023-07-31T08:21:01;100813.63;;;15.45;81.57
66703;BME280;60933;46.398;-63.798;2023-07-31T08:23:27;100820.00;;;15.38;80.49
66703;BME280;60933;46.398;-63.798;2023-07-31T08:25:53;100828.72;;;15.37;80.14
66703;BME280;60933;46.398;-63.798;2023-07-31T08:28:19;100831.44;;;15.33;80.10
66703;BME280;60933;46.398;-63.798;2023-07-31T08:30:45;100837.69;;;15.29;79.86
66703;BME280;60933;46.398;-63.798;2023-07-31T08:33:11;100843.03;;;15.26;79.54
66703;BME280;60933;46.398;-63.798;2023-07-31T08:35:37;100851.88;;;15.22;79.05
66703;BME280;60933;46.398;-63.798;2023-07-31T08:38:03;100858.00;;;15.21;79.26
66703;BME280;60933;46.398;-63.798;2023-07-31T08:40:30;100862.53;;;15.16;78.90
66703;BME280;60933;46.398;-63.798;2023-07-31T08:42:56;100863.38;;;15.16;80.35
66703;BME280;60933;46.398;-63.798;2023-07-31T08:45:24;100872.81;;;15.19;80.85
66703;BME280;60933;46.398;-63.798;2023-07-31T08:47:51;100877.88;;;15.22;81.78
66703;BME280;60933;46.398;-63.798;2023-07-31T08:50:19;100871.78;;;15.23;82.10
66703;BME280;60933;46.398;-63.798;2023-07-31T08:52:47;100873.47;;;15.24;82.02
66703;BME280;60933;46.398;-63.798;2023-07-31T08:55:14;100874.31;;;15.25;83.52
66703;BME280;60933;46.398;-63.798;2023-07-31T08:57:41;100876.06;;;15.24;81.75
66703;BME280;60933;46.398;-63.798;2023-07-31T09:00:09;100872.59;;;15.24;80.84
66703;BME280;60933;46.398;-63.798;2023-07-31T09:05:14;100879.44;;;15.26;82.50
66703;BME280;60933;46.398;-63.798;2023-07-31T09:07:42;100878.53;;;15.27;82.73
66703;BME280;60933;46.398;-63.798;2023-07-31T09:10:12;100895.44;;;15.38;80.32
66703;BME280;60933;46.398;-63.798;2023-07-31T09:12:39;100888.91;;;15.48;81.56
66703;BME280;60933;46.398;-63.798;2023-07-31T09:15:05;100901.00;;;15.70;85.06
66703;BME280;60933;46.398;-63.798;2023-07-31T09:17:36;100897.69;;;15.87;88.13
66703;BME280;60933;46.398;-63.798;2023-07-31T09:20:19;100898.41;;;15.90;81.65
66703;BME280;60933;46.398;-63.798;2023-07-31T09:22:47;100906.31;;;16.08;86.50
66703;BME280;60933;46.398;-63.798;2023-07-31T09:25:24;100907.00;;;16.11;80.66
66703;BME280;60933;46.398;-63.798;2023-07-31T09:28:06;100905.59;;;16.23;79.44
66703;BME280;60933;46.398;-63.798;2023-07-31T09:30:48;100897.22;;;16.36;83.64
66703;BME280;60933;46.398;-63.798;2023-07-31T09:33:18;100899.22;;;16.48;87.66
66703;BME280;60933;46.398;-63.798;2023-07-31T09:35:46;100898.59;;;16.43;79.28
66703;BME280;60933;46.398;-63.798;2023-07-31T09:38:14;100899.09;;;16.51;80.34
66703;BME280;60933;46.398;-63.798;2023-07-31T09:43:10;100898.44;;;16.65;82.74
66703;BME280;60933;46.398;-63.798;2023-07-31T09:45:38;100895.63;;;16.70;84.97
66703;BME280;60933;46.398;-63.798;2023-07-31T09:48:13;100894.53;;;16.74;83.86
66703;BME280;60933;46.398;-63.798;2023-07-31T09:50:45;100897.84;;;16.77;82.57
66703;BME280;60933;46.398;-63.798;2023-07-31T09:53:11;100899.47;;;16.80;82.53
66703;BME280;60933;46.398;-63.798;2023-07-31T09:55:39;100890.72;;;16.81;83.67
66703;BME280;60933;46.398;-63.798;2023-07-31T09:58:10;100889.72;;;16.84;83.52
66703;BME280;60933;46.398;-63.798;2023-07-31T10:00:37;100902.41;;;16.91;82.37
66703;BME280;60933;46.398;-63.798;2023-07-31T10:03:08;100904.81;;;16.96;83.26
66703;BME280;60933;46.398;-63.798;2023-07-31T10:05:36;100909.03;;;16.99;81.14
66703;BME280;60933;46.398;-63.798;2023-07-31T10:08:04;100906.13;;;17.05;82.27
66703;BME280;60933;46.398;-63.798;2023-07-31T10:10:32;100892.00;;;17.09;82.34
66703;BME280;60933;46.398;-63.798;2023-07-31T10:12:59;100907.34;;;17.15;81.85
66703;BME280;60933;46.398;-63.798;2023-07-31T10:15:25;100904.53;;;17.20;81.17
66703;BME280;60933;46.398;-63.798;2023-07-31T10:17:53;100906.19;;;17.21;76.38
66703;BME280;60933;46.398;-63.798;2023-07-31T10:20:20;100910.63;;;17.36;79.37
66703;BME280;60933;46.398;-63.798;2023-07-31T10:22:48;100905.50;;;17.35;78.62
66703;BME280;60933;46.398;-63.798;2023-07-31T10:25:15;100905.56;;;17.51;76.04
66703;BME280;60933;46.398;-63.798;2023-07-31T10:27:42;100906.84;;;17.60;79.34
66703;BME280;60933;46.398;-63.798;2023-07-31T10:30:12;100904.84;;;17.65;77.59
66703;BME280;60933;46.398;-63.798;2023-07-31T10:32:41;100919.09;;;17.75;80.19
66703;BME280;60933;46.398;-63.798;2023-07-31T10:35:09;100920.63;;;17.79;80.44
66703;BME280;60933;46.398;-63.798;2023-07-31T10:40:13;100921.00;;;17.89;81.28
66703;BME280;60933;46.398;-63.798;2023-07-31T10:42:49;100931.84;;;17.99;80.91
66703;BME280;60933;46.398;-63.798;2023-07-31T10:45:38;100935.19;;;18.01;80.63
66703;BME280;60933;46.398;-63.798;2023-07-31T10:48:06;100936.72;;;18.05;82.61
66703;BME280;60933;46.398;-63.798;2023-07-31T10:50:37;100945.38;;;18.06;81.97
66703;BME280;60933;46.398;-63.798;2023-07-31T10:53:04;100940.09;;;18.07;80.43
66703;BME280;60933;46.398;-63.798;2023-07-31T10:55:42;100945.91;;;18.12;81.49
66703;BME280;60933;46.398;-63.798;2023-07-31T10:58:14;100951.06;;;18.14;80.97
66703;BME280;60933;46.398;-63.798;2023-07-31T11:00:42;100960.44;;;18.18;80.79
66703;BME280;60933;46.398;-63.798;2023-07-31T11:03:13;100957.56;;;18.23;81.53
66703;BME280;60933;46.398;-63.798;2023-07-31T11:08:23;100949.41;;;18.29;79.88
66703;BME280;60933;46.398;-63.798;2023-07-31T11:13:33;100960.19;;;18.39;81.46
66703;BME280;60933;46.398;-63.798;2023-07-31T11:16:00;100965.41;;;18.39;81.73
66703;BME280;60933;46.398;-63.798;2023-07-31T11:18:27;100960.78;;;18.44;81.36
66703;BME280;60933;46.398;-63.798;2023-07-31T11:20:54;100968.22;;;18.51;81.92
66703;BME280;60933;46.398;-63.798;2023-07-31T11:23:21;100969.72;;;18.56;77.54
66703;BME280;60933;46.398;-63.798;2023-07-31T11:25:47;100968.28;;;18.66;78.36
66703;BME280;60933;46.398;-63.798;2023-07-31T11:28:14;100981.94;;;18.71;75.31
66703;BME280;60933;46.398;-63.798;2023-07-31T11:30:42;100983.22;;;18.80;78.76
66703;BME280;60933;46.398;-63.798;2023-07-31T11:33:11;100978.72;;;18.82;79.02
66703;BME280;60933;46.398;-63.798;2023-07-31T11:35:56;100980.34;;;18.85;78.78
66703;BME280;60933;46.398;-63.798;2023-07-31T11:40:54;100980.63;;;18.96;78.51
66703;BME280;60933;46.398;-63.798;2023-07-31T11:43:21;100990.91;;;18.99;78.61
66703;BME280;60933;46.398;-63.798;2023-07-31T11:45:49;100983.06;;;18.99;78.33
66703;BME280;60933;46.398;-63.798;2023-07-31T11:48:19;100993.19;;;19.05;77.83
66703;BME280;60933;46.398;-63.798;2023-07-31T11:50:47;100997.97;;;19.13;77.81
66703;BME280;60933;46.398;-63.798;2023-07-31T11:53:16;100996.97;;;19.16;77.45
66703;BME280;60933;46.398;-63.798;2023-07-31T11:55:43;101001.84;;;19.22;76.84
66703;BME280;60933;46.398;-63.798;2023-07-31T11:58:09;101015.50;;;19.27;76.69
66703;BME280;60933;46.398;-63.798;2023-07-31T12:00:36;101012.78;;;19.28;75.84
66703;BME280;60933;46.398;-63.798;2023-07-31T12:03:02;101011.75;;;19.31;76.05
66703;BME280;60933;46.398;-63.798;2023-07-31T12:05:28;101016.94;;;19.33;75.22
66703;BME280;60933;46.398;-63.798;2023-07-31T12:07:55;101012.25;;;19.38;75.92
66703;BME280;60933;46.398;-63.798;2023-07-31T12:10:32;101017.81;;;19.48;75.34
66703;BME280;60933;46.398;-63.798;2023-07-31T12:13:06;101015.03;;;19.51;75.11
66703;BME280;60933;46.398;-63.798;2023-07-31T12:15:38;101016.25;;;19.59;74.28
66703;BME280;60933;46.398;-63.798;2023-07-31T12:18:06;101014.69;;;19.71;73.06
66703;BME280;60933;46.398;-63.798;2023-07-31T12:20:33;101016.38;;;19.72;73.90
66703;BME280;60933;46.398;-63.798;2023-07-31T12:22:59;101012.56;;;19.78;73.90
66703;BME280;60933;46.398;-63.798;2023-07-31T12:25:30;101008.91;;;19.81;72.76
66703;BME280;60933;46.398;-63.798;2023-07-31T12:27:57;101006.03;;;19.85;73.61
66703;BME280;60933;46.398;-63.798;2023-07-31T12:30:28;101015.13;;;19.94;74.12
66703;BME280;60933;46.398;-63.798;2023-07-31T12:32:54;101011.19;;;20.01;73.16
66703;BME280;60933;46.398;-63.798;2023-07-31T12:35:20;101006.16;;;20.13;71.92
66703;BME280;60933;46.398;-63.798;2023-07-31T12:37:47;101001.47;;;20.18;71.44
66703;BME280;60933;46.398;-63.798;2023-07-31T12:40:13;101002.03;;;20.23;70.95
66703;BME280;60933;46.398;-63.798;2023-07-31T12:42:41;100995.13;;;20.22;70.86
66703;BME280;60933;46.398;-63.798;2023-07-31T12:45:07;100992.75;;;20.32;71.25
66703;BME280;60933;46.398;-63.798;2023-07-31T12:47:33;101001.81;;;20.40;70.71
66703;BME280;60933;46.398;-63.798;2023-07-31T12:49:59;101000.44;;;20.49;70.03
66703;BME280;60933;46.398;-63.798;2023-07-31T12:52:25;100997.13;;;20.60;68.18
66703;BME280;60933;46.398;-63.798;2023-07-31T12:54:52;100995.22;;;20.62;68.51
66703;BME280;60933;46.398;-63.798;2023-07-31T12:57:18;101012.38;;;20.68;68.55